Terminal Aerodrome Forecast
Issued by NWS

Home | Current Version | Previous Version | Text Only | Print | Product List | Glossary Off
Versions: 1 2 3 4 5 6 7 8 9 10 11 12 13 14

000
FTUS43 KABR 251129 AAC
TAFMBG
TAF AMD
KMBG 251129Z 2511/2606 01005KT 6SM -DZ BR SCT024 OVC029
      TEMPO 2512/2514 -RA FEW008 BKN016 OVC035
     FM251800 02008KT P6SM OVC025
     FM260000 34006KT P6SM SCT025 BKN040 BKN120=

USA.gov is the U.S. government's official web portal to all federal, state and local government web resources and services.